Time;durP1;ratioP1;P1;durP2;ratioP2;P2;SDS_P1;SDS_P2;PMS_P1;PMS_P2;Temp;Humidity;BMP_temperature;BMP_pressure;BME280_temperature;BME280_humidity;BME280_pressure;Samples;Min_cycle;Max_cycle;Signal;HPM_P1;HPM_P2
2022/12/02 00:00:44;;;;;;;71.00;30.45;;;;;;;1.24;91.43;99668.28;5006302;28;20128;-82
2022/12/02 00:03:15;;;;;;;73.30;27.42;;;;;;;1.01;93.45;99641.03;5008753;28;20060;-82
2022/12/02 00:05:41;;;;;;;74.53;30.58;;;;;;;0.69;94.47;99671.66;5016910;28;20029;-82
2022/12/02 00:08:18;;;;;;;80.70;31.27;;;;;;;0.14;95.53;99643.56;5007741;28;20037;-82
2022/12/02 00:10:44;;;;;;;81.68;31.20;;;;;;;0.36;96.36;99670.00;5016791;28;20030;-82
2022/12/02 00:13:12;;;;;;;70.28;30.92;;;;;;;0.18;96.94;99663.25;5042329;28;20029;-82
2022/12/02 00:15:43;;;;;;;82.13;33.15;;;;;;;0.31;97.45;99638.16;5023864;28;20060;-82
2022/12/02 00:18:11;;;;;;;77.32;31.52;;;;;;;0.88;96.42;99662.59;5017247;28;20428;-82
2022/12/02 00:20:37;;;;;;;82.70;30.10;;;;;;;0.54;95.34;99638.34;5019819;28;20033;-82
2022/12/02 00:23:03;;;;;;;81.35;29.42;;;;;;;0.44;96.53;99650.78;5022756;28;20032;-82
2022/12/02 00:25:28;;;;;;;79.63;31.55;;;;;;;0.83;94.76;99643.88;5016229;28;20907;-82
2022/12/02 00:27:54;;;;;;;82.88;31.60;;;;;;;0.58;95.19;99644.91;5022196;28;20025;-81
2022/12/02 00:30:19;;;;;;;76.28;30.50;;;;;;;0.44;96.35;99632.41;4989559;28;20056;-82
2022/12/02 00:32:44;;;;;;;79.25;30.40;;;;;;;0.19;96.43;99628.97;5019944;28;20504;-82
2022/12/02 00:35:10;;;;;;;71.55;30.45;;;;;;;0.48;96.46;99650.31;4995971;28;20037;-82
2022/12/02 00:37:35;;;;;;;90.40;32.28;;;;;;;0.15;97.12;99629.47;5006129;28;20037;-82
2022/12/02 00:40:01;;;;;;;78.97;31.80;;;;;;;0.47;97.19;99619.78;5018854;28;20044;-82
2022/12/02 00:42:26;;;;;;;85.47;32.53;;;;;;;0.27;97.39;99646.53;5008174;28;20060;-82
2022/12/02 00:47:35;;;;;;;81.70;32.92;;;;;;;1.08;97.76;99634.13;5011633;28;20135;-83
2022/12/02 00:50:01;;;;;;;75.78;31.02;;;;;;;1.39;95.97;99643.72;5023464;28;20033;-83
2022/12/02 00:52:26;;;;;;;108.03;35.40;;;;;;;0.33;96.16;99628.31;5023828;28;20048;-82
2022/12/02 00:54:51;;;;;;;91.03;33.17;;;;;;;0.59;96.76;99644.72;4993402;28;20117;-82
2022/12/02 00:57:17;;;;;;;93.55;35.33;;;;;;;1.02;96.04;99646.16;5009501;28;20037;-83
2022/12/02 00:59:42;;;;;;;106.13;38.50;;;;;;;0.52;96.91;99624.56;5023087;28;20094;-82
2022/12/02 01:02:08;;;;;;;113.88;41.30;;;;;;;0.60;97.11;99638.50;5028146;28;20033;-82
2022/12/02 01:04:33;;;;;;;121.43;37.90;;;;;;;0.75;96.32;99638.63;5006185;28;20087;-82
2022/12/02 01:06:58;;;;;;;107.80;39.58;;;;;;;1.30;96.52;99631.59;5020545;28;20124;-82
2022/12/02 01:09:24;;;;;;;121.18;40.47;;;;;;;1.19;95.86;99637.22;5015652;28;20530;-82
2022/12/02 01:11:49;;;;;;;124.55;41.78;;;;;;;0.60;95.80;99635.03;5022176;28;20026;-83
2022/12/02 01:14:14;;;;;;;132.43;42.13;;;;;;;0.18;96.57;99622.09;5010846;28;20041;-83
2022/12/02 01:16:40;;;;;;;123.28;41.88;;;;;;;0.70;98.90;99633.03;4997344;28;20056;-83
2022/12/02 01:19:05;;;;;;;126.53;41.40;;;;;;;0.06;98.34;99617.31;5008410;28;20033;-82
2022/12/02 01:21:31;;;;;;;124.13;43.58;;;;;;;0.19;97.82;99599.28;5001996;28;20041;-83
2022/12/02 01:23:56;;;;;;;139.55;42.45;;;;;;;-0.05;98.92;99616.66;5005324;28;20037;-82
2022/12/02 01:26:22;;;;;;;134.73;42.50;;;;;;;0.26;98.79;99622.09;4998338;28;20037;-83
2022/12/02 01:28:47;;;;;;;143.32;45.85;;;;;;;0.15;98.96;99627.66;5007370;28;20036;-82
2022/12/02 01:31:14;;;;;;;160.65;45.55;;;;;;;0.13;98.38;99606.03;5018790;28;20033;-82
2022/12/02 01:33:39;;;;;;;150.32;45.92;;;;;;;-0.10;98.93;99629.44;5007730;28;20571;-83
2022/12/02 01:36:05;;;;;;;137.38;42.33;;;;;;;-0.18;99.68;99616.31;5022077;28;20028;-82
2022/12/02 01:38:30;;;;;;;144.52;44.58;;;;;;;-0.23;100.00;99636.13;4989947;28;20416;-83
2022/12/02 01:40:56;;;;;;;143.07;47.33;;;;;;;-0.18;99.58;99623.34;5020845;28;20135;-82
2022/12/02 01:43:22;;;;;;;146.50;45.75;;;;;;;0.63;98.24;99627.63;5023114;28;20028;-83
2022/12/02 01:45:47;;;;;;;135.55;41.25;;;;;;;0.32;97.01;99636.38;4993015;28;20473;-83
2022/12/02 01:48:12;;;;;;;135.40;41.97;;;;;;;-0.09;98.34;99632.88;5023002;28;20030;-82
2022/12/02 01:50:38;;;;;;;144.02;41.03;;;;;;;0.57;97.22;99623.06;5018262;28;20041;-83
2022/12/02 01:53:04;;;;;;;128.32;42.38;;;;;;;0.45;96.77;99619.13;5001505;28;20026;-83
2022/12/02 01:55:30;;;;;;;135.95;41.67;;;;;;;-0.13;97.73;99637.63;5020301;28;20033;-84
2022/12/02 01:57:57;;;;;;;127.85;39.30;;;;;;;0.95;96.35;99639.09;5023630;28;20033;-83
2022/12/02 02:00:23;;;;;;;120.55;37.45;;;;;;;0.19;96.75;99630.78;5022393;28;20433;-83
2022/12/02 02:02:50;;;;;;;139.73;41.38;;;;;;;-0.13;95.05;99621.06;5002667;28;20022;-82
2022/12/02 02:05:21;;;;;;;113.57;37.40;;;;;;;0.08;97.54;99625.84;5022769;28;20029;-82
2022/12/02 02:07:52;;;;;;;114.97;38.75;;;;;;;0.47;97.75;99622.41;5019706;28;20033;-82
2022/12/02 02:10:19;;;;;;;105.65;38.85;;;;;;;0.43;95.96;99639.50;5027180;28;20060;-83
2022/12/02 02:12:45;;;;;;;113.13;36.53;;;;;;;-0.51;97.00;99640.81;5031597;28;20389;-82
2022/12/02 02:15:12;;;;;;;121.72;40.83;;;;;;;-0.64;99.46;99639.59;5025922;28;20021;-82
2022/12/02 02:17:38;;;;;;;115.05;40.47;;;;;;;-0.47;98.72;99626.38;5025607;28;20041;-82
2022/12/02 02:20:08;;;;;;;134.02;44.42;;;;;;;-0.38;98.04;99611.50;5025721;28;20072;-83
2022/12/02 02:22:42;;;;;;;113.78;38.47;;;;;;;0.34;98.36;99627.34;5023912;28;20095;-83
2022/12/02 02:25:11;;;;;;;118.28;40.25;;;;;;;-0.09;97.93;99617.94;5019671;28;20723;-82
2022/12/02 02:27:37;;;;;;;118.82;40.90;;;;;;;-0.51;97.57;99613.75;5022728;28;20045;-83
2022/12/02 02:30:03;;;;;;;129.45;38.67;;;;;;;0.31;98.85;99621.59;5005398;28;20037;-82
2022/12/02 02:32:29;;;;;;;113.05;38.08;;;;;;;0.04;98.14;99609.63;5005138;28;20029;-82
2022/12/02 02:34:54;;;;;;;128.75;44.85;;;;;;;-0.36;98.31;99607.75;5022984;28;20099;-83
2022/12/02 02:37:20;;;;;;;129.25;43.95;;;;;;;-0.75;98.42;99583.03;4985658;28;20039;-82
2022/12/02 02:39:45;;;;;;;122.10;41.15;;;;;;;-0.50;98.97;99595.25;5023551;28;20029;-83
2022/12/02 02:42:10;;;;;;;128.02;42.00;;;;;;;-0.94;99.22;99597.19;5021727;28;20079;-82
2022/12/02 02:44:36;;;;;;;124.53;40.53;;;;;;;-0.59;99.27;99596.19;5007818;28;20033;-83
2022/12/02 02:47:01;;;;;;;127.15;42.78;;;;;;;-0.86;100.00;99615.59;5008811;28;20386;-82
2022/12/02 02:49:27;;;;;;;112.03;42.17;;;;;;;-0.46;100.00;99612.28;5006052;28;20133;-83
2022/12/02 02:51:52;;;;;;;120.40;42.42;;;;;;;0.02;99.73;99613.38;5021386;28;20025;-82
2022/12/02 02:54:18;;;;;;;119.90;41.50;;;;;;;-0.40;97.16;99608.22;5006496;28;20040;-83
2022/12/02 02:56:43;;;;;;;126.65;41.67;;;;;;;-0.91;99.01;99622.28;4995882;28;20072;-84
2022/12/02 02:59:13;;;;;;;120.00;43.55;;;;;;;-0.97;99.79;99610.63;5018053;28;20033;-83
2022/12/02 03:01:42;;;;;;;130.57;39.85;;;;;;;-1.08;100.00;99604.84;5005548;28;20091;-83
2022/12/02 03:04:10;;;;;;;128.13;43.05;;;;;;;-0.85;100.00;99587.56;5016447;28;20558;-83
2022/12/02 03:06:38;;;;;;;133.48;45.95;;;;;;;-0.62;100.00;99604.38;5017217;28;20265;-83
2022/12/02 03:09:07;;;;;;;118.82;42.80;;;;;;;-0.96;99.90;99596.53;5010786;28;20030;-83
2022/12/02 03:11:34;;;;;;;120.72;40.75;;;;;;;-0.67;100.00;99585.69;5021410;28;20026;-83
2022/12/02 03:14:01;;;;;;;133.80;45.47;;;;;;;-0.92;100.00;99589.22;5019877;28;20036;-83
2022/12/02 03:16:26;;;;;;;129.05;44.17;;;;;;;-0.95;100.00;99600.81;4997301;28;20033;-83
2022/12/02 03:18:54;;;;;;;138.75;43.00;;;;;;;-0.80;100.00;99604.47;5021619;28;20512;-84
2022/12/02 03:21:21;;;;;;;140.93;44.15;;;;;;;0.05;99.16;99578.94;5022603;28;20030;-83
2022/12/02 03:23:48;;;;;;;133.05;44.65;;;;;;;-0.43;99.62;99600.66;5021274;28;20029;-84
2022/12/02 03:26:14;;;;;;;132.77;42.30;;;;;;;-0.17;99.55;99596.97;5018815;28;20033;-83
2022/12/02 03:28:40;;;;;;;133.52;45.53;;;;;;;-0.21;97.43;99548.44;5022728;28;20535;-85
2022/12/02 03:31:06;;;;;;;126.93;41.50;;;;;;;0.10;97.50;99577.47;5015768;28;20017;-84
2022/12/02 03:33:33;;;;;;;121.60;41.97;;;;;;;0.60;94.73;99572.00;5003893;28;20029;-84
2022/12/02 03:35:58;;;;;;;122.10;42.15;;;;;;;-0.36;95.15;99563.16;5021911;28;20029;-84
2022/12/02 03:38:24;;;;;;;129.80;43.00;;;;;;;-0.62;97.21;99595.69;5018449;28;20029;-84
2022/12/02 03:40:50;;;;;;;119.13;40.63;;;;;;;-0.06;98.56;99569.59;5023529;28;20033;-84
2022/12/02 03:43:19;;;;;;;117.63;43.10;;;;;;;0.25;97.12;99590.75;5007059;28;20045;-84
2022/12/02 03:45:45;;;;;;;114.38;41.47;;;;;;;-0.36;95.58;99583.31;5017332;28;20048;-85
2022/12/02 03:48:11;;;;;;;113.82;40.75;;;;;;;-0.33;95.59;99575.13;5021382;28;20029;-84
2022/12/02 03:50:38;;;;;;;112.15;42.05;;;;;;;-0.43;97.37;99571.81;5018520;28;20036;-84
2022/12/02 03:53:04;;;;;;;113.72;42.85;;;;;;;-0.43;97.15;99587.56;5018688;28;20444;-84
2022/12/02 03:55:29;;;;;;;120.63;44.72;;;;;;;-1.07;98.93;99572.44;5007839;28;20033;-83
2022/12/02 03:58:01;;;;;;;122.13;41.55;;;;;;;-0.30;98.33;99574.78;4999440;28;20401;-83
2022/12/02 04:00:26;;;;;;;114.90;39.17;;;;;;;-0.23;95.99;99563.50;5005283;28;20037;-83
2022/12/02 04:02:51;;;;;;;106.65;38.83;;;;;;;-0.67;97.29;99572.59;4981059;28;20793;-84
2022/12/02 04:05:17;;;;;;;126.05;41.28;;;;;;;-0.33;98.83;99568.06;5019495;28;20207;-84
2022/12/02 04:07:42;;;;;;;122.32;40.25;;;;;;;-0.35;97.48;99564.00;5017510;28;20029;-84
2022/12/02 04:10:08;;;;;;;111.25;37.85;;;;;;;-0.56;97.07;99574.91;4990615;28;20171;-84
2022/12/02 04:12:33;;;;;;;108.35;40.22;;;;;;;-0.87;98.63;99576.44;5028226;28;20038;-84
2022/12/02 04:14:59;;;;;;;130.85;42.53;;;;;;;-0.42;99.12;99555.13;4999121;28;21195;-84
2022/12/02 04:17:24;;;;;;;117.00;41.58;;;;;;;-0.52;97.42;99570.16;5014004;28;20060;-84
2022/12/02 04:19:50;;;;;;;136.23;44.97;;;;;;;-0.91;99.43;99559.41;5011674;28;20029;-84
2022/12/02 04:22:15;;;;;;;122.88;41.95;;;;;;;-1.23;100.00;99560.09;5032591;28;20303;-83
2022/12/02 04:24:40;;;;;;;130.27;43.42;;;;;;;-1.27;100.00;99532.56;5033441;28;20108;-83
2022/12/02 04:27:06;;;;;;;147.50;45.92;;;;;;;-0.22;100.00;99538.13;5029142;28;20040;-84
2022/12/02 04:29:31;;;;;;;133.23;45.17;;;;;;;-0.57;98.24;99560.19;5014881;28;20473;-84
2022/12/02 04:31:57;;;;;;;134.02;42.15;;;;;;;-0.53;98.31;99551.00;5013427;28;20067;-84
2022/12/02 04:34:22;;;;;;;138.32;44.92;;;;;;;-0.76;98.18;99537.66;5031469;28;20026;-84
2022/12/02 04:36:47;;;;;;;123.97;41.88;;;;;;;-1.14;98.76;99550.47;5014224;28;20397;-84
2022/12/02 04:39:13;;;;;;;128.57;42.78;;;;;;;-0.51;100.00;99554.28;5015758;28;20079;-84
2022/12/02 04:41:38;;;;;;;127.07;42.97;;;;;;;-0.82;98.91;99550.59;5030006;28;20052;-84
2022/12/02 04:44:03;;;;;;;116.43;40.78;;;;;;;-1.07;99.99;99554.91;5031793;28;20026;-84
2022/12/02 04:46:29;;;;;;;130.35;41.58;;;;;;;-0.99;100.00;99534.00;5023885;28;20025;-84
2022/12/02 04:48:54;;;;;;;129.80;40.67;;;;;;;-1.04;100.00;99553.78;5031275;28;20033;-84
2022/12/02 04:51:20;;;;;;;119.28;39.00;;;;;;;-0.54;100.00;99551.97;5032241;28;20121;-84
2022/12/02 04:53:45;;;;;;;126.22;39.60;;;;;;;-0.77;99.29;99545.69;5024942;28;20029;-84
2022/12/02 04:56:10;;;;;;;110.40;36.33;;;;;;;0.06;98.96;99542.06;5025060;28;20085;-84
2022/12/02 04:58:37;;;;;;;115.95;40.30;;;;;;;-0.28;95.83;99534.31;5028224;28;20033;-84
2022/12/02 05:01:04;;;;;;;130.20;43.08;;;;;;;-0.72;96.53;99508.53;5011775;28;20107;-85
2022/12/02 05:03:29;;;;;;;116.22;40.85;;;;;;;-0.93;97.77;99549.09;5027371;28;20025;-85
2022/12/02 05:05:55;;;;;;;129.68;38.83;;;;;;;-0.58;98.74;99527.06;5023708;28;20091;-84
2022/12/02 05:08:20;;;;;;;124.05;42.15;;;;;;;-0.23;97.42;99539.91;4998142;28;20037;-85
2022/12/02 05:10:45;;;;;;;110.40;40.08;;;;;;;-0.18;98.31;99540.25;5014779;28;20095;-85
2022/12/02 05:13:11;;;;;;;123.47;40.42;;;;;;;-0.11;95.97;99533.34;5017086;28;20041;-84
2022/12/02 05:15:36;;;;;;;109.40;39.58;;;;;;;-0.75;96.71;99512.28;5014231;28;20088;-85
2022/12/02 05:18:02;;;;;;;118.22;40.22;;;;;;;-0.57;96.99;99530.50;5032255;28;20037;-84
2022/12/02 05:20:27;;;;;;;112.57;38.83;;;;;;;-0.96;98.62;99515.31;5027563;28;20377;-85
2022/12/02 05:22:52;;;;;;;106.45;37.78;;;;;;;-0.51;97.66;99517.59;5002727;28;20060;-85
2022/12/02 05:25:18;;;;;;;114.85;40.17;;;;;;;-0.04;97.04;99534.34;5010413;28;20056;-84
2022/12/02 05:27:43;;;;;;;121.60;40.20;;;;;;;-0.47;96.87;99536.41;5030854;28;20047;-84
2022/12/02 05:30:10;;;;;;;114.90;39.67;;;;;;;-1.07;96.61;99439.66;5023315;28;20513;-84
2022/12/02 05:32:36;;;;;;;122.25;41.10;;;;;;;-0.16;96.46;99525.16;5028890;28;20034;-85
2022/12/02 05:35:01;;;;;;;114.82;39.60;;;;;;;-0.26;97.49;99534.16;5007454;28;20044;-85
2022/12/02 05:37:26;;;;;;;116.28;43.83;;;;;;;-0.20;96.76;99531.69;5025610;28;20057;-85
2022/12/02 05:39:52;;;;;;;114.72;39.67;;;;;;;-0.67;97.34;99528.03;5005610;28;20037;-85
2022/12/02 05:42:17;;;;;;;123.60;40.20;;;;;;;-0.01;97.43;99530.56;5027232;28;20041;-84
2022/12/02 05:44:43;;;;;;;131.50;44.67;;;;;;;0.12;94.73;99515.13;5013117;28;20033;-85
2022/12/02 05:47:14;;;;;;;118.85;38.13;;;;;;;0.02;96.10;99542.53;5010357;28;20030;-85
2022/12/02 05:49:41;;;;;;;136.55;42.50;;;;;;;-0.72;96.64;99511.16;5024789;28;20107;-86
2022/12/02 05:52:20;;;;;;;111.40;36.97;;;;;;;-0.36;98.60;99542.19;5022297;28;20045;-84
2022/12/02 05:54:46;;;;;;;134.75;42.80;;;;;;;-0.98;98.13;99445.72;5027834;28;20025;-85
2022/12/02 05:57:12;;;;;;;140.77;42.17;;;;;;;-0.89;97.14;99513.72;5005582;28;20073;-85
2022/12/02 05:59:38;;;;;;;146.23;44.80;;;;;;;-0.33;98.02;99526.09;5026504;28;20730;-85
2022/12/02 06:02:19;;;;;;;129.00;41.67;;;;;;;-0.15;95.43;99537.28;5020319;28;20037;-85
2022/12/02 06:04:45;;;;;;;118.43;39.63;;;;;;;-0.25;94.57;99514.81;5027886;28;20041;-85
2022/12/02 06:07:12;;;;;;;125.10;41.30;;;;;;;-0.09;97.75;99536.63;5030029;28;20030;-85
2022/12/02 06:09:37;;;;;;;118.72;40.38;;;;;;;0.46;94.76;99517.56;5029577;28;20128;-84
2022/12/02 06:12:13;;;;;;;113.07;39.70;;;;;;;-0.45;95.76;99535.28;5010420;28;20100;-84
2022/12/02 06:14:39;;;;;;;120.68;41.72;;;;;;;-1.14;96.78;99450.94;5044336;28;20424;-84
2022/12/02 06:17:17;;;;;;;112.78;39.33;;;;;;;-0.92;97.78;99523.72;5028207;28;20401;-84
2022/12/02 06:19:48;;;;;;;120.70;40.40;;;;;;;-0.78;98.29;99541.44;5031373;28;20378;-85
2022/12/02 06:22:21;;;;;;;124.13;42.42;;;;;;;-0.61;99.13;99519.50;5030959;28;20032;-84
2022/12/02 06:24:47;;;;;;;128.48;41.83;;;;;;;-0.06;96.76;99535.47;5019756;28;20040;-84
2022/12/02 06:27:16;;;;;;;124.22;41.75;;;;;;;-0.07;95.93;99537.28;5030779;28;20030;-85
2022/12/02 06:29:48;;;;;;;127.95;42.33;;;;;;;-0.46;96.34;99499.53;5012174;28;20034;-84
2022/12/02 06:32:19;;;;;;;118.82;40.63;;;;;;;-0.90;97.71;99545.34;5008030;28;20034;-85
2022/12/02 06:34:47;;;;;;;115.53;39.20;;;;;;;-0.39;99.34;99533.81;5029533;28;20605;-84
2022/12/02 06:37:17;;;;;;;123.40;39.53;;;;;;;-0.69;97.70;99542.25;5026943;28;20540;-84
2022/12/02 06:39:48;;;;;;;123.13;42.42;;;;;;;-0.10;98.14;99542.88;5027404;28;20524;-84
2022/12/02 06:42:20;;;;;;;130.90;42.45;;;;;;;-0.76;97.16;99521.94;5027448;28;20083;-84
2022/12/02 06:45:03;;;;;;;115.72;40.05;;;;;;;-0.56;98.59;99532.97;5026094;28;20410;-85
2022/12/02 06:47:35;;;;;;;120.88;39.58;;;;;;;-0.16;97.21;99545.31;5011455;28;20523;-84
2022/12/02 06:50:03;;;;;;;135.73;43.83;;;;;;;0.34;96.09;99545.13;5023223;28;20029;-84
2022/12/02 06:52:33;;;;;;;121.32;42.97;;;;;;;1.00;94.49;99534.28;5023421;28;20533;-85
2022/12/02 06:54:59;;;;;;;117.85;41.20;;;;;;;-0.36;94.18;99525.63;5030020;28;20531;-84
2022/12/02 06:57:26;;;;;;;125.65;41.35;;;;;;;0.18;95.87;99545.13;5021061;28;20033;-85
2022/12/02 06:59:51;;;;;;;118.53;39.00;;;;;;;0.49;94.27;99540.84;5028344;28;20033;-85
2022/12/02 07:02:25;;;;;;;104.68;39.75;;;;;;;0.70;93.69;99555.06;5006965;28;20033;-84
2022/12/02 07:04:51;;;;;;;115.07;40.28;;;;;;;0.63;92.51;99546.22;5021997;28;20576;-84
2022/12/02 07:07:20;;;;;;;108.43;40.08;;;;;;;1.43;91.01;99537.19;5021304;28;20046;-84
2022/12/02 07:09:59;;;;;;;100.32;37.83;;;;;;;-0.16;92.92;99554.00;5005768;28;20029;-83
2022/12/02 07:12:31;;;;;;;104.25;39.50;;;;;;;-0.26;95.10;99523.66;5021150;28;20392;-84
2022/12/02 07:15:01;;;;;;;105.22;41.75;;;;;;;0.12;96.12;99545.81;5019308;28;20029;-84
2022/12/02 07:17:37;;;;;;;122.97;44.03;;;;;;;0.09;93.62;99554.03;5022560;28;20029;-83
2022/12/02 07:20:05;;;;;;;111.18;40.67;;;;;;;-0.53;95.50;99556.25;5004285;28;20037;-85
2022/12/02 07:22:39;;;;;;;118.80;43.97;;;;;;;0.20;95.90;99549.25;5024607;28;20443;-85
2022/12/02 07:25:26;;;;;;;117.10;43.55;;;;;;;0.71;92.48;99548.00;5019159;28;20060;-84
2022/12/02 07:27:52;;;;;;;107.60;39.85;;;;;;;-0.95;96.45;99527.47;5016481;28;20037;-84
2022/12/02 07:30:29;;;;;;;114.38;40.65;;;;;;;-0.76;97.95;99549.94;5019506;28;20056;-83
2022/12/02 07:32:55;;;;;;;107.07;36.75;;;;;;;-0.37;98.21;99539.75;5033036;28;20026;-83
2022/12/02 07:35:21;;;;;;;128.70;39.88;;;;;;;-1.02;98.21;99547.41;4990623;28;20075;-84
2022/12/02 07:37:46;;;;;;;106.68;41.88;;;;;;;-1.08;99.39;99558.53;5006887;28;20172;-84
2022/12/02 07:40:15;;;;;;;113.00;38.90;;;;;;;-1.09;99.76;99535.13;5027562;28;20489;-84
2022/12/02 07:42:40;;;;;;;122.32;43.28;;;;;;;-0.71;99.40;99524.09;5025749;28;20048;-84
2022/12/02 07:45:06;;;;;;;129.52;42.97;;;;;;;-1.06;98.49;99505.97;5004218;28;20138;-84
2022/12/02 07:47:33;;;;;;;139.35;43.65;;;;;;;-1.22;100.00;99526.88;5024372;28;20036;-84
2022/12/02 07:49:58;;;;;;;128.23;41.55;;;;;;;-0.66;99.51;99552.44;5010602;28;20022;-84
2022/12/02 07:52:24;;;;;;;119.95;41.47;;;;;;;-0.88;98.79;99548.59;5027524;28;20029;-84
2022/12/02 07:54:50;;;;;;;113.50;41.50;;;;;;;-0.94;99.45;99552.66;5028855;28;20017;-84
2022/12/02 07:57:15;;;;;;;131.50;41.03;;;;;;;-0.72;99.63;99553.09;5011284;28;20128;-84
2022/12/02 07:59:41;;;;;;;118.35;44.05;;;;;;;-0.88;99.02;99554.69;5027382;28;20108;-84
2022/12/02 08:02:06;;;;;;;128.00;41.22;;;;;;;-1.30;99.40;99526.81;5028222;28;21213;-84
2022/12/02 08:04:32;;;;;;;115.90;39.30;;;;;;;-0.97;99.45;99534.66;5028205;28;20033;-84
2022/12/02 08:06:58;;;;;;;122.47;44.65;;;;;;;-1.02;99.61;99526.44;4994347;28;20037;-84
2022/12/02 08:09:23;;;;;;;118.03;42.58;;;;;;;-1.05;99.06;99529.38;5025803;28;20048;-84
2022/12/02 08:11:49;;;;;;;113.25;40.90;;;;;;;-0.91;100.00;99539.25;5028421;28;20021;-84
2022/12/02 08:14:14;;;;;;;122.28;40.28;;;;;;;-0.83;99.30;99535.88;4989530;28;20049;-84
2022/12/02 08:16:39;;;;;;;134.25;44.45;;;;;;;-0.69;98.86;99518.69;5025617;28;20041;-84
2022/12/02 08:19:05;;;;;;;107.00;39.78;;;;;;;-0.63;98.28;99552.94;5028756;28;20036;-84
2022/12/02 08:21:31;;;;;;;113.63;39.05;;;;;;;-1.20;98.65;99538.00;5028178;28;20033;-84
2022/12/02 08:23:57;;;;;;;114.25;40.58;;;;;;;-1.04;99.50;99559.00;5029594;28;20068;-83
2022/12/02 08:26:22;;;;;;;114.72;40.88;;;;;;;-0.97;99.87;99547.75;5025107;28;20044;-84
2022/12/02 08:28:48;;;;;;;121.15;45.42;;;;;;;-1.07;99.65;99549.66;5030458;28;20025;-84
2022/12/02 08:31:13;;;;;;;115.30;40.47;;;;;;;-0.97;100.00;99539.06;5025568;28;20041;-84
2022/12/02 08:33:38;;;;;;;114.82;42.63;;;;;;;-1.09;100.00;99550.81;5006064;28;20148;-84
2022/12/02 08:36:04;;;;;;;122.32;41.08;;;;;;;-1.00;99.86;99528.91;4996320;28;20622;-83
2022/12/02 08:38:29;;;;;;;114.15;40.15;;;;;;;-0.58;99.08;99545.41;5009964;28;20034;-83
2022/12/02 08:40:55;;;;;;;105.88;41.55;;;;;;;-0.84;99.04;99524.56;5026951;28;20237;-84
2022/12/02 08:43:20;;;;;;;117.40;41.22;;;;;;;-1.33;99.56;99514.06;5007683;28;20100;-83
2022/12/02 08:45:46;;;;;;;130.10;41.92;;;;;;;-0.94;99.44;99526.47;5026885;28;20025;-84
2022/12/02 08:48:11;;;;;;;110.03;40.30;;;;;;;-1.06;99.95;99534.78;4993828;28;20037;-83
2022/12/02 08:50:40;;;;;;;129.55;43.28;;;;;;;-1.04;99.71;99527.59;5011215;28;20124;-84
2022/12/02 08:53:05;;;;;;;124.72;44.58;;;;;;;-1.16;100.00;99513.16;5026061;28;20041;-84
2022/12/02 08:55:30;;;;;;;126.47;43.17;;;;;;;-1.34;100.00;99525.50;4994920;28;20595;-84
2022/12/02 08:57:56;;;;;;;115.60;40.83;;;;;;;-1.00;100.00;99545.44;5011963;28;20041;-85
2022/12/02 09:00:22;;;;;;;122.32;43.55;;;;;;;-1.23;100.00;99522.59;5030867;28;20030;-85
2022/12/02 09:02:47;;;;;;;118.82;40.55;;;;;;;-0.79;99.81;99540.59;5033334;28;20025;-84
2022/12/02 09:05:13;;;;;;;122.60;40.10;;;;;;;-1.24;100.00;99513.91;5029943;28;20041;-84
2022/12/02 09:07:39;;;;;;;129.13;42.90;;;;;;;-0.87;100.00;99537.97;4996047;28;20034;-84
2022/12/02 09:10:06;;;;;;;105.75;39.25;;;;;;;-0.60;100.00;99543.94;5032030;28;20030;-84
2022/12/02 09:12:32;;;;;;;133.18;42.45;;;;;;;-1.11;99.48;99539.66;5032353;28;20037;-84
2022/12/02 09:14:57;;;;;;;130.02;41.90;;;;;;;-1.29;99.87;99536.31;5032207;28;20029;-84
2022/12/02 09:17:23;;;;;;;127.05;44.42;;;;;;;-1.28;100.00;99524.84;5031536;28;20032;-84
2022/12/02 09:19:48;;;;;;;126.00;44.53;;;;;;;-1.23;100.00;99506.88;5015804;28;20044;-83
2022/12/02 09:22:13;;;;;;;129.20;48.83;;;;;;;-1.18;100.00;99547.31;5008656;28;20083;-84
2022/12/02 09:24:39;;;;;;;122.28;44.55;;;;;;;-0.92;100.00;99547.28;5032517;28;20116;-83
2022/12/02 09:27:04;;;;;;;118.72;42.03;;;;;;;-1.15;100.00;99535.72;5014445;28;20026;-83
2022/12/02 09:29:30;;;;;;;128.25;45.03;;;;;;;-1.32;100.00;99523.53;5032578;28;20038;-84
2022/12/02 09:31:55;;;;;;;122.88;44.83;;;;;;;-0.86;100.00;99537.00;5029179;28;20029;-83
2022/12/02 09:34:21;;;;;;;120.32;45.95;;;;;;;-0.72;99.94;99538.16;5032457;28;20040;-83
2022/12/02 09:36:46;;;;;;;96.95;37.92;;;;;;;-0.15;100.00;99523.34;5028819;28;20167;-83
2022/12/02 09:39:11;;;;;;;123.88;47.17;;;;;;;-0.57;98.37;99541.00;5010057;28;20036;-84
2022/12/02 09:41:37;;;;;;;114.25;43.03;;;;;;;-0.74;99.34;99534.88;5030229;28;20420;-83
2022/12/02 09:44:04;;;;;;;126.18;48.13;;;;;;;-0.64;98.90;99534.75;5032334;28;20065;-83
2022/12/02 09:46:30;;;;;;;130.30;48.28;;;;;;;-1.03;100.00;99516.97;5023423;28;20345;-83
2022/12/02 09:48:56;;;;;;;131.35;48.58;;;;;;;-0.73;99.22;99539.16;5011720;28;20421;-83
2022/12/02 09:51:22;;;;;;;135.43;49.83;;;;;;;-1.04;99.55;99525.78;5029929;28;20116;-83
2022/12/02 09:53:47;;;;;;;137.07;49.15;;;;;;;-0.73;99.23;99512.13;5014341;28;20120;-84
2022/12/02 09:56:18;;;;;;;133.45;49.17;;;;;;;-0.83;100.00;99520.16;5012284;28;20053;-83
2022/12/02 09:58:47;;;;;;;125.70;45.45;;;;;;;-0.69;99.29;99505.56;5024887;28;20485;-83
2022/12/02 10:01:14;;;;;;;125.35;45.55;;;;;;;-0.80;98.70;99509.31;5030770;28;20124;-84
2022/12/02 10:03:41;;;;;;;130.45;46.75;;;;;;;-0.95;99.24;99535.31;5006632;28;20509;-83
2022/12/02 10:06:12;;;;;;;133.75;47.75;;;;;;;-0.55;99.67;99525.94;5013488;28;20036;-83
2022/12/02 10:08:37;;;;;;;117.45;43.55;;;;;;;-0.68;99.83;99521.16;5029084;28;20037;-83
2022/12/02 10:11:04;;;;;;;128.20;43.92;;;;;;;-0.97;99.50;99528.59;5030190;28;20029;-83
2022/12/02 10:13:36;;;;;;;121.15;46.42;;;;;;;-1.05;100.00;99510.25;5032215;28;20044;-83
2022/12/02 10:16:09;;;;;;;120.45;43.90;;;;;;;-1.12;100.00;99536.25;5030241;28;20428;-83
2022/12/02 10:18:35;;;;;;;140.98;46.10;;;;;;;-1.06;100.00;99511.19;5027793;28;20397;-83
2022/12/02 10:21:00;;;;;;;111.20;42.35;;;;;;;-0.94;100.00;99528.28;5012690;28;20026;-84
2022/12/02 10:23:27;;;;;;;126.63;46.28;;;;;;;-1.02;100.00;99499.44;5028078;28;20045;-83
2022/12/02 10:26:08;;;;;;;120.75;45.70;;;;;;;-0.93;100.00;99529.91;5028131;28;20025;-83
2022/12/02 10:28:35;;;;;;;122.50;44.35;;;;;;;-0.87;100.00;99518.78;5024501;28;20037;-83
2022/12/02 10:31:11;;;;;;;131.38;46.08;;;;;;;-1.02;100.00;99509.91;5029967;28;20458;-83
2022/12/02 10:33:50;;;;;;;133.23;45.20;;;;;;;-0.79;100.00;99524.06;5030865;28;20036;-83
2022/12/02 10:36:35;;;;;;;110.45;43.13;;;;;;;-0.58;100.00;99521.81;5024377;28;20030;-83
2022/12/02 10:39:19;;;;;;;107.90;42.70;;;;;;;-0.81;99.26;99523.41;5029029;28;20501;-83
2022/12/02 10:41:48;;;;;;;110.40;40.33;;;;;;;-0.43;100.00;99507.09;5027977;28;20021;-83
2022/12/02 10:44:19;;;;;;;122.13;43.65;;;;;;;-0.93;99.25;99504.53;5029127;28;20548;-83
2022/12/02 10:46:45;;;;;;;120.82;43.72;;;;;;;-0.82;99.86;99508.66;5026108;28;20091;-82
2022/12/02 10:49:33;;;;;;;121.18;43.58;;;;;;;-0.79;99.61;99490.81;5008911;28;20037;-83
2022/12/02 10:52:06;;;;;;;114.72;42.63;;;;;;;-0.88;99.30;99470.00;5024661;28;20018;-83
2022/12/02 10:54:33;;;;;;;121.57;42.20;;;;;;;-0.61;99.84;99501.16;5028726;28;20485;-83
2022/12/02 10:57:00;;;;;;;135.38;43.60;;;;;;;-1.10;100.00;99454.88;5024325;28;20107;-83
2022/12/02 10:59:26;;;;;;;133.75;43.55;;;;;;;-0.99;100.00;99484.22;5027426;28;20180;-83
2022/12/02 11:01:52;;;;;;;118.05;41.35;;;;;;;-1.08;100.00;99484.34;5030470;28;20391;-83
2022/12/02 11:04:18;;;;;;;114.38;43.13;;;;;;;-1.07;100.00;99486.81;5028460;28;20029;-83
2022/12/02 11:06:44;;;;;;;110.72;44.03;;;;;;;-0.84;100.00;99498.34;5029087;28;20083;-83
2022/12/02 11:09:19;;;;;;;111.75;41.92;;;;;;;-1.11;100.00;99456.69;5011950;28;20030;-83
2022/12/02 11:11:46;;;;;;;133.35;45.47;;;;;;;-0.95;100.00;99485.53;5019876;28;20048;-83